• Join FlightAware (Why Join?)
  • Login
  • US Flag 
05:15AM EDT


 

Airport Tracker/Info


-or-


 

Live Flight TrackerFlight Track Log ✈ ASA603 ✈ 06-May-2013 ✈ KLAS - KSEA

Flight Track Log - Related Links

Times and Time Zones

All times are in EDT time to prevent confusion due to time zone crossing. See the ASA603 flight status page for this flight to view local times or setup timezone preferences in your user account.

Time Position Orientation Groundspeed Altitude Reporting Facility
EDT Latitude Longitude Course Direction KTS MPH feet Rate Location/Type
10:05AM 36.0756 -115.1950 227° Southwest 194 223 3,900  Level Los Angeles Center
10:06AM 36.0097 -115.2822 227° Southwest 265 305 7,700 2,520 Climbing Los Angeles Center
10:08AM 35.9494 -115.3361 216° Southwest 275 316 10,800 2,760 Climbing Los Angeles Center
10:09AM 35.9389 -115.4392 263° West 297 342 13,400 2,700 Climbing Los Angeles Center
10:10AM 35.9292 -115.5650 265° West 329 379 16,400 2,640 Climbing Los Angeles Center
10:11AM 35.9192 -115.6817 264° West 341 392 18,900 2,340 Climbing Los Angeles Center
10:12AM 35.9083 -115.8133 264° West 359 413 21,200 1,800 Climbing Los Angeles Center
10:14AM 35.9559 -116.0392 321° Northwest  Level FlightAware Approximate
10:15AM 36.0922 -116.1225 321° Northwest 407 468 26,300  Level Los Angeles Center
10:17AM 36.2656 -116.3489 314° West 427 491 28,900 1,440 Climbing Los Angeles Center
10:18AM 36.3517 -116.4642 313° West 450 518 30,800 960 Climbing Los Angeles Center
10:20AM 36.4835 -116.6563 318° Northwest  Level FlightAware Approximate
10:20AM 36.5308 -116.7006 318° Northwest 452 520 32,000  Level Los Angeles Center
10:21AM 36.6097 -116.7828 320° Northwest 461 531 32,000  Level Los Angeles Center
10:22AM 36.7547 -116.8889 330° Northwest 465 535 32,000  Level Los Angeles Center
10:23AM 36.8547 -116.9672 328° Northwest 467 537 32,000  Level Los Angeles Center
10:24AM 36.9433 -117.0386 327° Northwest 469 540 32,000  Level Oakland Center
10:25AM 37.0550 -117.1222 329° Northwest 469 540 32,000  Level Oakland Center
10:27AM 37.3256 -117.3294 329° Northwest 476 548 32,000  Level Los Angeles Center
10:28AM 37.4458 -117.4053 333° Northwest 481 554 32,000  Level Los Angeles Center
10:29AM 37.5408 -117.4667 333° Northwest 481 554 32,000  Level Oakland Center
10:31AM 37.7814 -117.6797 325° Northwest 474 545 32,000  Level Los Angeles Center
10:32AM 37.8886 -117.7811 323° Northwest 476 548 32,000  Level Los Angeles Center
10:33AM 38.0164 -117.9050 323° Northwest 476 548 32,000  Level Los Angeles Center
10:34AM 38.0789 -117.9672 322° Northwest 478 550 32,000  Level Oakland Center
10:35AM 38.1850 -118.0717 322° Northwest 481 554 32,000  Level Oakland Center
10:36AM 38.2828 -118.1672 323° Northwest 478 550 32,000  Level Oakland Center
10:37AM 38.4092 -118.2922 322° Northwest 480 552 32,000  Level Oakland Center
10:38AM 38.5133 -118.3947 322° Northwest 474 545 32,000  Level Oakland Center
10:39AM 38.6172 -118.4989 322° Northwest 473 544 32,000  Level Oakland Center
10:40AM 38.7222 -118.6022 322° Northwest 475 547 32,000  Level Oakland Center
10:41AM 38.8256 -118.7072 322° Northwest 474 545 32,000  Level Oakland Center
10:42AM 38.9308 -118.8133 322° Northwest 477 549 32,000  Level Oakland Center
10:43AM 39.0353 -118.9192 322° Northwest 476 548 32,000  Level Oakland Center
10:44AM 39.1403 -119.0261 322° Northwest 477 549 32,000  Level Oakland Center
10:45AM 39.2503 -119.1208 326° Northwest 473 544 32,000  Level Oakland Center
10:47AM 39.4464 -119.2153 340° North 465 535 32,000  Level Seattle Center
10:48AM 39.6167 -119.2983 339° North 464 534 32,000  Level Oakland Center
10:49AM 39.7383 -119.3561 340° North 464 534 32,000  Level Oakland Center
10:50AM 39.8589 -119.4164 339° North 464 534 32,000  Level Oakland Center
10:51AM 39.9797 -119.4756 339° North 464 534 32,000  Level Oakland Center
10:53AM 40.1756 -119.5714 340° North 461 531 32,000  Level Seattle Center
10:53AM 40.2217 -119.5939 340° North 463 533 32,000  Level Oakland Center
10:55AM 40.4161 -119.6897 339° North 457 526 32,000  Level Seattle Center
10:57AM 40.6150 -119.7440 348° North  Level FlightAware Approximate
10:57AM 40.7264 -119.8486 348° North 455 524 32,000  Level Oakland Center
10:58AM 40.8458 -119.9067 340° North 456 525 32,000  Level Oakland Center
10:59AM 40.8953 -119.9314 339° North 462 532 32,000  Level Seattle Center
11:00AM 41.0147 -119.9914 339° North 458 527 32,000  Level Seattle Center
11:01AM 41.1344 -120.0522 339° North 460 529 32,000  Level Seattle Center
11:02AM 41.2814 -120.1247 340° North 468 539 32,000  Level Seattle Center
11:03AM 41.4006 -120.1850 339° North 462 532 32,000  Level Seattle Center
11:04AM 41.5186 -120.2464 339° North 459 528 32,000  Level Seattle Center
11:05AM 41.6356 -120.3086 338° Northwest 455 524 32,000  Level Seattle Center
11:07AM 41.8703 -120.4344 338° Northwest 452 520 32,000  Level Seattle Center
11:08AM 41.9925 -120.4956 340° North 465 535 32,000  Level Seattle Center
11:09AM 42.1136 -120.5589 339° North 469 540 32,000  Level Seattle Center
11:10AM 42.2331 -120.6217 339° North 465 535 32,000  Level Seattle Center
11:11AM 42.3531 -120.6839 339° North 463 533 32,000  Level Seattle Center
11:12AM 42.4714 -120.7469 339° North 460 529 32,000  Level Seattle Center
11:14AM 42.6332 -120.8231 341° North  Level FlightAware Approximate
11:14AM 42.7308 -120.8850 341° North 457 526 32,000  Level Seattle Center
11:16AM 42.8892 -120.9583 341° North  Level FlightAware Approximate
11:17AM 43.0847 -121.0742 338° Northwest 462 532 33,000  Level Seattle Center
11:18AM 43.2061 -121.1411 338° Northwest 468 539 34,000 480 Climbing Seattle Center
11:19AM 43.3253 -121.2053 339° North 461 531 34,000  Level Seattle Center
11:21AM 43.5247 -121.3997 325° Northwest 461 531 34,000  Level Seattle Center
11:23AM 43.6547 -121.3864 338° Northwest  Level FlightAware Approximate
11:23AM 43.6736 -121.4569 344° North  Level FlightAware Approximate
11:23AM 43.6803 -121.6603 344° North 456 525 34,000  Level Seattle Center
11:24AM 43.7989 -121.7117 343° North 449 517 34,000  Level Seattle Center
11:25AM 43.9297 -121.7672 343° North 447 514 34,000  Level Seattle Center
11:26AM 44.0472 -121.8192 342° North 443 510 34,000  Level Seattle Center
11:28AM 44.1931 -121.8391 354° North  Level Estimated
11:29AM 44.4042 -121.9769 354° North 438 504 34,000  Level Seattle Center
11:31AM 44.5409 -122.0338 343° North  Level FlightAware Approximate
11:31AM 44.6364 -122.0806 343° North 437 503 34,000  Level Seattle Center
11:33AM 44.7684 -122.1348 344° North  Level FlightAware Approximate
11:33AM 44.8678 -122.1861 344° North 437 503 34,000  Level Seattle Center
11:34AM 44.9867 -122.2419 342° North 443 510 34,000  Level Seattle Center
11:35AM 45.0212 -121.9541 354° North  Level Estimated
11:36AM 45.1137 -122.2906 345° North  Level FlightAware Approximate
11:36AM 45.1725 -122.4731 345° North 481 554 34,000  Level Seattle Center
11:38AM 45.3911 -122.6406 332° Northwest 444 511 34,000  Level Seattle Center
11:39AM 45.5025 -122.6267 North 419 482 34,000  Level Seattle Center
11:40AM 45.6142 -122.6092 North 409 471 34,000 -660 Level Seattle Center
11:43AM 45.8414 -122.6150 359° North 427 491 32,100 -1,380 Descending Seattle Center
11:44AM 45.9594 -122.6436 350° North 431 496 29,900 -2,220 Descending Seattle Center
11:45AM 46.0764 -122.6769 349° North 431 496 27,600 -2,220 Descending Seattle Center
11:46AM 46.1853 -122.7347 340° North 419 482 25,500 -2,340 Descending Seattle Center
11:47AM 46.3042 -122.7961 340° North 402 463 22,900 -2,220 Descending Seattle Center
11:48AM 46.4031 -122.8442 341° North 385 443 21,100 -1,860 Descending Seattle Center
11:49AM 46.4994 -122.8936 341° North 373 429 19,200 -1,740 Descending Seattle Center
11:50AM 46.5928 -122.9344 343° North 361 415 17,600 -1,320 Descending Seattle Center
11:52AM 46.7447 -122.8197 27° Northeast 316 364 15,300 -1,320 Descending Seattle Center
11:52AM 46.7667 -122.7839 48° Northeast 310 357 14,500 -1,980 Descending Seattle Center
11:53AM 46.8336 -122.6800 47° Northeast 308 354 12,300 -1,980 Descending Seattle Center
11:54AM 46.8658 -122.6397 41° Northeast 313 360 11,300 -1,920 Descending Seattle Center
11:54AM 46.8906 -122.6072 42° Northeast 318 366 10,600 -1,260 Descending Seattle Center
11:55AM 46.9533 -122.5217 43° Northeast 288 331 9,600 -1,140 Descending Seattle Center
11:57AM 47.0494 -122.4111 38° Northeast 270 311 7,600 -1,260 Descending Seattle Center
11:57AM 47.0733 -122.3911 30° Northeast 262 302 7,100 -1,080 Descending Seattle Center
11:59AM 47.1800 -122.3281 22° Northeast 239 275 5,500 -1,080 Descending Seattle Center
11:59AM 47.2042 -122.3197 13° North 234 269 5,000 -1,200 Descending Seattle Center
12:00PM 47.2439 -122.3156 North 234 269 4,300 -1,200 Descending Seattle Center
12:00PM 47.2667 -122.3117 North 222 255 3,800 -840 Descending Seattle Center
12:01PM 47.2936 -122.3114 360° North 222 255 3,500 -720 Descending Seattle Center
12:01PM 47.3206 -122.3144 356° North 190 219 3,100 -1,020 Descending Seattle Center
12:02PM 47.3447 -122.3122 North 203 234 2,500 -1,140 Descending Seattle Center
12:03PM 47.3997 -122.3114 North 182 209 1,200 -1,200 Descending Seattle Center
12:03PM 47.4136 -122.3125 357° North 154 177 900 -840 Descending Seattle Center